sensor_id;sensor_type;location;lat;lon;timestamp;pressure;altitude;pressure_sealevel;temperature;humidity
15880;BME280;61999;51.514;14.614;2023-02-28T00:01:32;101435.38;;;-1.37;42.08
15880;BME280;61999;51.514;14.614;2023-02-28T00:04:01;101427.63;;;-1.35;41.80
15880;BME280;61999;51.514;14.614;2023-02-28T00:06:29;101433.66;;;-1.35;41.79
15880;BME280;61999;51.514;14.614;2023-02-28T00:08:57;101429.34;;;-1.36;41.60
15880;BME280;61999;51.514;14.614;2023-02-28T00:11:25;101424.19;;;-1.36;42.03
15880;BME280;61999;51.514;14.614;2023-02-28T00:13:55;101425.06;;;-1.40;42.26
15880;BME280;61999;51.514;14.614;2023-02-28T00:16:24;101421.59;;;-1.42;42.06
15880;BME280;61999;51.514;14.614;2023-02-28T00:18:52;101428.53;;;-1.44;42.21
15880;BME280;61999;51.514;14.614;2023-02-28T00:21:20;101425.97;;;-1.46;42.28
15880;BME280;61999;51.514;14.614;2023-02-28T00:23:48;101430.28;;;-1.46;42.56
15880;BME280;61999;51.514;14.614;2023-02-28T00:26:16;101427.69;;;-1.48;42.57
15880;BME280;61999;51.514;14.614;2023-02-28T00:28:47;101427.66;;;-1.45;42.67
15880;BME280;61999;51.514;14.614;2023-02-28T00:31:15;101425.09;;;-1.46;42.17
15880;BME280;61999;51.514;14.614;2023-02-28T00:33:44;101431.97;;;-1.45;42.00
15880;BME280;61999;51.514;14.614;2023-02-28T00:36:12;101432.84;;;-1.43;42.17
15880;BME280;61999;51.514;14.614;2023-02-28T00:38:41;101431.94;;;-1.42;42.29
15880;BME280;61999;51.514;14.614;2023-02-28T00:41:09;101433.69;;;-1.41;42.13
15880;BME280;61999;51.514;14.614;2023-02-28T00:43:39;101437.13;;;-1.42;42.05
15880;BME280;61999;51.514;14.614;2023-02-28T00:46:08;101435.41;;;-1.43;41.78
15880;BME280;61999;51.514;14.614;2023-02-28T00:48:37;101432.84;;;-1.43;42.20
15880;BME280;61999;51.514;14.614;2023-02-28T00:51:06;101432.88;;;-1.46;42.15
15880;BME280;61999;51.514;14.614;2023-02-28T00:53:34;101429.41;;;-1.45;42.10
15880;BME280;61999;51.514;14.614;2023-02-28T00:56:03;101426.81;;;-1.45;41.95
15880;BME280;61999;51.514;14.614;2023-02-28T00:58:31;101425.06;;;-1.43;42.27
15880;BME280;61999;51.514;14.614;2023-02-28T01:00:59;101428.56;;;-1.47;42.46
15880;BME280;61999;51.514;14.614;2023-02-28T01:03:27;101425.97;;;-1.47;41.83
15880;BME280;61999;51.514;14.614;2023-02-28T01:05:55;101431.16;;;-1.47;42.15
15880;BME280;61999;51.514;14.614;2023-02-28T01:08:24;101425.09;;;-1.46;41.54
15880;BME280;61999;51.514;14.614;2023-02-28T01:10:54;101428.53;;;-1.44;42.01
15880;BME280;61999;51.514;14.614;2023-02-28T01:13:22;101432.84;;;-1.43;41.44
15880;BME280;61999;51.514;14.614;2023-02-28T01:15:55;101426.81;;;-1.45;41.66
15880;BME280;61999;51.514;14.614;2023-02-28T01:18:23;101426.84;;;-1.47;41.05
15880;BME280;61999;51.514;14.614;2023-02-28T01:20:52;101423.41;;;-1.47;41.03
15880;BME280;61999;51.514;14.614;2023-02-28T01:23:21;101425.97;;;-1.49;41.63
15880;BME280;61999;51.514;14.614;2023-02-28T01:25:52;101419.97;;;-1.52;41.27
15880;BME280;61999;51.514;14.614;2023-02-28T01:28:20;101416.56;;;-1.57;41.53
15880;BME280;61999;51.514;14.614;2023-02-28T01:30:49;101428.59;;;-1.56;41.36
15880;BME280;61999;51.514;14.614;2023-02-28T01:33:18;101419.16;;;-1.56;41.63
15880;BME280;61999;51.514;14.614;2023-02-28T01:35:45;101423.44;;;-1.55;41.09
15880;BME280;61999;51.514;14.614;2023-02-28T01:38:14;101420.00;;;-1.57;40.91
15880;BME280;61999;51.514;14.614;2023-02-28T01:40:50;101421.75;;;-1.60;41.21
15880;BME280;61999;51.514;14.614;2023-02-28T01:43:23;101415.72;;;-1.66;41.13
15880;BME280;61999;51.514;14.614;2023-02-28T01:45:54;101425.22;;;-1.74;40.36
15880;BME280;61999;51.514;14.614;2023-02-28T01:48:27;101410.66;;;-1.84;40.93
15880;BME280;61999;51.514;14.614;2023-02-28T01:51:03;101421.91;;;-1.94;40.64
15880;BME280;61999;51.514;14.614;2023-02-28T01:53:38;101421.94;;;-2.02;40.61
15880;BME280;61999;51.514;14.614;2023-02-28T01:56:12;101414.22;;;-2.11;41.14
15880;BME280;61999;51.514;14.614;2023-02-28T01:58:47;101416.00;;;-2.22;40.90
15880;BME280;61999;51.514;14.614;2023-02-28T02:01:15;101412.59;;;-2.30;40.91
15880;BME280;61999;51.514;14.614;2023-02-28T02:03:48;101408.31;;;-2.42;41.14
15880;BME280;61999;51.514;14.614;2023-02-28T02:06:22;101413.53;;;-2.51;41.06
15880;BME280;61999;51.514;14.614;2023-02-28T02:08:51;101404.91;;;-2.57;41.17
15880;BME280;61999;51.514;14.614;2023-02-28T02:11:23;101405.84;;;-2.67;42.00
15880;BME280;61999;51.514;14.614;2023-02-28T02:14:30;101408.41;;;-2.79;41.65
15880;BME280;61999;51.514;14.614;2023-02-28T02:17:22;101405.88;;;-2.90;41.40
15880;BME280;61999;51.514;14.614;2023-02-28T02:20:35;101405.03;;;-3.04;41.84
15880;BME280;61999;51.514;14.614;2023-02-28T02:23:55;101405.03;;;-3.15;42.21
15880;BME280;61999;51.514;14.614;2023-02-28T02:27:19;101399.03;;;-3.35;42.32
15880;BME280;61999;51.514;14.614;2023-02-28T02:30:37;101400.72;;;-3.54;43.81
15880;BME280;61999;51.514;14.614;2023-02-28T02:33:42;101398.97;;;-3.57;42.98
15880;BME280;61999;51.514;14.614;2023-02-28T02:36:23;101397.25;;;-3.59;42.62
15880;BME280;61999;51.514;14.614;2023-02-28T02:39:00;101404.16;;;-3.64;42.95
15880;BME280;61999;51.514;14.614;2023-02-28T02:41:38;101393.81;;;-3.74;43.66
15880;BME280;61999;51.514;14.614;2023-02-28T02:44:14;101401.56;;;-3.75;43.98
15880;BME280;61999;51.514;14.614;2023-02-28T02:46:45;101395.53;;;-3.77;43.41
15880;BME280;61999;51.514;14.614;2023-02-28T02:49:20;101388.63;;;-3.83;43.67
15880;BME280;61999;51.514;14.614;2023-02-28T02:51:53;101392.09;;;-3.84;44.07
15880;BME280;61999;51.514;14.614;2023-02-28T02:54:25;101392.03;;;-3.98;44.66
15880;BME280;61999;51.514;14.614;2023-02-28T02:56:59;101392.91;;;-3.93;44.27
15880;BME280;61999;51.514;14.614;2023-02-28T02:59:30;101394.66;;;-3.90;43.74
15880;BME280;61999;51.514;14.614;2023-02-28T03:02:02;101394.59;;;-4.04;45.20
15880;BME280;61999;51.514;14.614;2023-02-28T03:04:38;101404.94;;;-3.95;44.31
15880;BME280;61999;51.514;14.614;2023-02-28T03:07:09;101396.38;;;-3.91;44.47
15880;BME280;61999;51.514;14.614;2023-02-28T03:09:37;101403.22;;;-3.96;45.26
15880;BME280;61999;51.514;14.614;2023-02-28T03:12:11;101404.06;;;-3.94;44.88
15880;BME280;61999;51.514;14.614;2023-02-28T03:14:55;101398.09;;;-3.86;44.80
15880;BME280;61999;51.514;14.614;2023-02-28T03:18:01;101398.06;;;-3.85;44.53
15880;BME280;61999;51.514;14.614;2023-02-28T03:20:41;101392.09;;;-3.81;44.38
15880;BME280;61999;51.514;14.614;2023-02-28T03:23:20;101396.38;;;-3.91;45.64
15880;BME280;61999;51.514;14.614;2023-02-28T03:25:57;101396.41;;;-3.75;44.42
15880;BME280;61999;51.514;14.614;2023-02-28T03:28:37;101402.41;;;-3.72;44.63
15880;BME280;61999;51.514;14.614;2023-02-28T03:31:16;101410.16;;;-3.67;44.36
15880;BME280;61999;51.514;14.614;2023-02-28T03:33:54;101408.44;;;-3.62;44.27
15880;BME280;61999;51.514;14.614;2023-02-28T03:36:29;101408.41;;;-3.68;45.04
15880;BME280;61999;51.514;14.614;2023-02-28T03:39:03;101412.75;;;-3.64;44.95
15880;BME280;61999;51.514;14.614;2023-02-28T03:41:38;101400.69;;;-3.70;45.07
15880;BME280;61999;51.514;14.614;2023-02-28T03:44:13;101418.75;;;-3.59;44.66
15880;BME280;61999;51.514;14.614;2023-02-28T03:46:49;101415.34;;;-3.53;44.32
15880;BME280;61999;51.514;14.614;2023-02-28T03:49:28;101417.03;;;-3.51;44.07
15880;BME280;61999;51.514;14.614;2023-02-28T03:52:04;101418.78;;;-3.47;44.08
15880;BME280;61999;51.514;14.614;2023-02-28T03:54:41;101417.91;;;-3.49;44.47
15880;BME280;61999;51.514;14.614;2023-02-28T03:57:17;101421.34;;;-3.48;44.34
15880;BME280;61999;51.514;14.614;2023-02-28T03:59:54;101425.63;;;-3.49;44.66
15880;BME280;61999;51.514;14.614;2023-02-28T04:02:24;101422.19;;;-3.51;44.49
15880;BME280;61999;51.514;14.614;2023-02-28T04:04:52;101429.94;;;-3.58;45.11
15880;BME280;61999;51.514;14.614;2023-02-28T04:07:21;101427.34;;;-3.51;44.91
15880;BME280;61999;51.514;14.614;2023-02-28T04:09:51;101426.50;;;-3.50;45.02
15880;BME280;61999;51.514;14.614;2023-02-28T04:12:19;101421.34;;;-3.48;44.96
15880;BME280;61999;51.514;14.614;2023-02-28T04:14:49;101431.66;;;-3.47;44.84
15880;BME280;61999;51.514;14.614;2023-02-28T04:17:18;101430.78;;;-3.49;45.38
15880;BME280;61999;51.514;14.614;2023-02-28T04:19:46;101432.53;;;-3.44;44.96
15880;BME280;61999;51.514;14.614;2023-02-28T04:22:14;101423.94;;;-3.43;44.83
15880;BME280;61999;51.514;14.614;2023-02-28T04:24:44;101423.94;;;-3.47;44.38
15880;BME280;61999;51.514;14.614;2023-02-28T04:27:13;101427.38;;;-3.48;44.49
15880;BME280;61999;51.514;14.614;2023-02-28T04:29:42;101422.19;;;-3.51;44.38
15880;BME280;61999;51.514;14.614;2023-02-28T04:32:11;101424.78;;;-3.52;44.33
15880;BME280;61999;51.514;14.614;2023-02-28T04:34:39;101424.78;;;-3.58;44.71
15880;BME280;61999;51.514;14.614;2023-02-28T04:37:07;101425.63;;;-3.64;44.91
15880;BME280;61999;51.514;14.614;2023-02-28T04:39:40;101420.47;;;-3.70;45.19
15880;BME280;61999;51.514;14.614;2023-02-28T04:42:09;101430.72;;;-3.79;45.23
15880;BME280;61999;51.514;14.614;2023-02-28T04:44:38;101429.88;;;-3.77;44.52
15880;BME280;61999;51.514;14.614;2023-02-28T04:47:06;101424.72;;;-3.78;44.58
15880;BME280;61999;51.514;14.614;2023-02-28T04:49:34;101422.06;;;-4.03;45.74
15880;BME280;61999;51.514;14.614;2023-02-28T04:52:02;101424.66;;;-3.98;45.28
15880;BME280;61999;51.514;14.614;2023-02-28T04:54:30;101426.41;;;-3.99;45.06
15880;BME280;61999;51.514;14.614;2023-02-28T04:56:58;101428.97;;;-4.02;45.09
15880;BME280;61999;51.514;14.614;2023-02-28T04:59:28;101424.66;;;-4.00;44.94
15880;BME280;61999;51.514;14.614;2023-02-28T05:01:57;101428.03;;;-4.10;45.86
15880;BME280;61999;51.514;14.614;2023-02-28T05:04:25;101425.50;;;-4.07;45.11
15880;BME280;61999;51.514;14.614;2023-02-28T05:06:53;101426.34;;;-4.06;44.63
15880;BME280;61999;51.514;14.614;2023-02-28T05:09:22;101428.94;;;-4.05;44.78
15880;BME280;61999;51.514;14.614;2023-02-28T05:11:50;101434.09;;;-4.05;44.50
15880;BME280;61999;51.514;14.614;2023-02-28T05:14:18;101429.78;;;-4.06;44.68
15880;BME280;61999;51.514;14.614;2023-02-28T05:16:46;101430.66;;;-4.07;44.93
15880;BME280;61999;51.514;14.614;2023-02-28T05:19:15;101428.03;;;-4.13;45.52
15880;BME280;61999;51.514;14.614;2023-02-28T05:21:51;101429.69;;;-4.23;46.02
15880;BME280;61999;51.514;14.614;2023-02-28T05:24:19;101426.25;;;-4.20;45.38
15880;BME280;61999;51.514;14.614;2023-02-28T05:26:52;101440.88;;;-4.18;44.85
15880;BME280;61999;51.514;14.614;2023-02-28T05:29:20;101435.72;;;-4.19;45.00
15880;BME280;61999;51.514;14.614;2023-02-28T05:31:48;101435.66;;;-4.25;45.50
15880;BME280;61999;51.514;14.614;2023-02-28T05:34:18;101440.84;;;-4.21;45.23
15880;BME280;61999;51.514;14.614;2023-02-28T05:36:46;101441.69;;;-4.26;45.33
15880;BME280;61999;51.514;14.614;2023-02-28T05:39:14;101444.25;;;-4.29;45.44
15880;BME280;61999;51.514;14.614;2023-02-28T05:41:43;101451.97;;;-4.29;45.51
15880;BME280;61999;51.514;14.614;2023-02-28T05:44:11;101451.09;;;-4.28;45.54
15880;BME280;61999;51.514;14.614;2023-02-28T05:46:40;101449.41;;;-4.23;45.24
15880;BME280;61999;51.514;14.614;2023-02-28T05:49:08;101453.72;;;-4.24;45.32
15880;BME280;61999;51.514;14.614;2023-02-28T05:51:37;101448.53;;;-4.25;46.02
15880;BME280;61999;51.514;14.614;2023-02-28T05:54:07;101458.00;;;-4.27;45.75
15880;BME280;61999;51.514;14.614;2023-02-28T05:56:35;101459.72;;;-4.26;45.52
15880;BME280;61999;51.514;14.614;2023-02-28T05:59:05;101467.47;;;-4.22;45.47
15880;BME280;61999;51.514;14.614;2023-02-28T06:01:36;101464.84;;;-4.29;45.90
15880;BME280;61999;51.514;14.614;2023-02-28T06:04:08;101466.50;;;-4.39;46.53
15880;BME280;61999;51.514;14.614;2023-02-28T06:06:50;101476.84;;;-4.31;46.11
15880;BME280;61999;51.514;14.614;2023-02-28T06:09:18;101474.25;;;-4.35;46.86
15880;BME280;61999;51.514;14.614;2023-02-28T06:11:47;101478.53;;;-4.35;47.09
15880;BME280;61999;51.514;14.614;2023-02-28T06:14:17;101476.88;;;-4.22;46.19
15880;BME280;61999;51.514;14.614;2023-02-28T06:16:45;101481.22;;;-4.14;45.96
15880;BME280;61999;51.514;14.614;2023-02-28T06:19:14;101489.81;;;-4.08;45.80
15880;BME280;61999;51.514;14.614;2023-02-28T06:21:42;101488.19;;;-4.05;45.75
15880;BME280;61999;51.514;14.614;2023-02-28T06:24:11;101490.78;;;-4.02;45.81
15880;BME280;61999;51.514;14.614;2023-02-28T06:26:39;101495.91;;;-3.97;46.23
15880;BME280;61999;51.514;14.614;2023-02-28T06:29:07;101489.94;;;-3.92;45.80
15880;BME280;61999;51.514;14.614;2023-02-28T06:31:35;101490.81;;;-3.86;45.65
15880;BME280;61999;51.514;14.614;2023-02-28T06:34:05;101486.44;;;-4.03;46.44
15880;BME280;61999;51.514;14.614;2023-02-28T06:36:33;101494.25;;;-3.91;46.10
15880;BME280;61999;51.514;14.614;2023-02-28T06:39:01;101487.41;;;-3.81;45.89
15880;BME280;61999;51.514;14.614;2023-02-28T06:41:30;101493.44;;;-3.71;45.53
15880;BME280;61999;51.514;14.614;2023-02-28T06:44:19;101497.75;;;-3.73;46.04
15880;BME280;61999;51.514;14.614;2023-02-28T06:46:47;101500.34;;;-3.64;46.25
15880;BME280;61999;51.514;14.614;2023-02-28T06:49:16;101503.81;;;-3.54;45.77
15880;BME280;61999;51.514;14.614;2023-02-28T06:51:45;101503.84;;;-3.47;45.73
15880;BME280;61999;51.514;14.614;2023-02-28T06:54:14;101503.84;;;-3.37;45.47
15880;BME280;61999;51.514;14.614;2023-02-28T06:56:43;101512.47;;;-3.29;45.14
15880;BME280;61999;51.514;14.614;2023-02-28T06:59:11;101517.63;;;-3.26;45.35
15880;BME280;61999;51.514;14.614;2023-02-28T07:01:39;101513.34;;;-3.21;45.01
15880;BME280;61999;51.514;14.614;2023-02-28T07:04:08;101504.75;;;-3.11;45.03
15880;BME280;61999;51.514;14.614;2023-02-28T07:06:35;101511.63;;;-3.02;44.41
15880;BME280;61999;51.514;14.614;2023-02-28T07:09:03;101510.78;;;-2.93;44.38
15880;BME280;61999;51.514;14.614;2023-02-28T07:11:31;101515.09;;;-2.86;44.35
15880;BME280;61999;51.514;14.614;2023-02-28T07:14:01;101511.66;;;-2.76;43.98
15880;BME280;61999;51.514;14.614;2023-02-28T07:16:29;101503.03;;;-2.69;43.50
15880;BME280;61999;51.514;14.614;2023-02-28T07:18:57;101510.81;;;-2.67;43.90
15880;BME280;61999;51.514;14.614;2023-02-28T07:21:25;101512.50;;;-2.59;43.41
15880;BME280;61999;51.514;14.614;2023-02-28T07:23:56;101516.78;;;-2.48;43.99
15880;BME280;61999;51.514;14.614;2023-02-28T07:26:24;101515.06;;;-2.40;43.35
15880;BME280;61999;51.514;14.614;2023-02-28T07:28:52;101528.81;;;-2.29;43.56
15880;BME280;61999;51.514;14.614;2023-02-28T07:31:22;101530.50;;;-2.22;43.51
15880;BME280;61999;51.514;14.614;2023-02-28T07:33:50;101522.75;;;-2.14;43.78
15880;BME280;61999;51.514;14.614;2023-02-28T07:36:19;101527.88;;;-2.08;43.15
15880;BME280;61999;51.514;14.614;2023-02-28T07:38:48;101524.41;;;-1.99;43.36
15880;BME280;61999;51.514;14.614;2023-02-28T07:41:19;101530.44;;;-1.91;42.95
15880;BME280;61999;51.514;14.614;2023-02-28T07:43:48;101526.97;;;-1.84;43.25
15880;BME280;61999;51.514;14.614;2023-02-28T07:46:16;101533.84;;;-1.80;42.62
15880;BME280;61999;51.514;14.614;2023-02-28T07:48:48;101526.06;;;-1.77;42.22
15880;BME280;61999;51.514;14.614;2023-02-28T07:51:16;101529.50;;;-1.67;42.26
15880;BME280;61999;51.514;14.614;2023-02-28T07:53:44;101527.75;;;-1.60;42.42
15880;BME280;61999;51.514;14.614;2023-02-28T07:56:12;101525.13;;;-1.51;42.69
15880;BME280;61999;51.514;14.614;2023-02-28T07:58:40;101531.09;;;-1.40;43.03
15880;BME280;61999;51.514;14.614;2023-02-28T08:01:10;101531.91;;;-1.29;42.55
15880;BME280;61999;51.514;14.614;2023-02-28T08:03:39;101524.06;;;-1.18;42.38
15880;BME280;61999;51.514;14.614;2023-02-28T08:06:17;101539.56;;;-1.13;42.24
15880;BME280;61999;51.514;14.614;2023-02-28T08:08:46;101526.56;;;-1.04;42.08
15880;BME280;61999;51.514;14.614;2023-02-28T08:11:15;101534.28;;;-0.95;42.40
15880;BME280;61999;51.514;14.614;2023-02-28T08:13:44;101532.44;;;-0.82;42.49
15880;BME280;61999;51.514;14.614;2023-02-28T08:16:13;101530.63;;;-0.71;42.50
15880;BME280;61999;51.514;14.614;2023-02-28T08:18:44;101527.94;;;-0.62;41.96
15880;BME280;61999;51.514;14.614;2023-02-28T08:21:13;101531.28;;;-0.49;42.56
15880;BME280;61999;51.514;14.614;2023-02-28T08:23:41;101536.34;;;-0.37;42.05
15880;BME280;61999;51.514;14.614;2023-02-28T08:26:09;101535.41;;;-0.26;41.85
15880;BME280;61999;51.514;14.614;2023-02-28T08:28:37;101532.63;;;-0.11;42.21
15880;BME280;61999;51.514;14.614;2023-02-28T08:31:11;101536.00;;;-0.03;41.08
15880;BME280;61999;51.514;14.614;2023-02-28T08:33:40;101530.59;;;0.15;41.02
15880;BME280;61999;51.514;14.614;2023-02-28T08:36:09;101537.53;;;0.17;39.39
15880;BME280;61999;51.514;14.614;2023-02-28T08:38:38;101537.31;;;0.35;39.83
15880;BME280;61999;51.514;14.614;2023-02-28T08:41:09;101535.41;;;0.49;40.82
15880;BME280;61999;51.514;14.614;2023-02-28T08:43:38;101534.28;;;0.67;40.24
15880;BME280;61999;51.514;14.614;2023-02-28T08:46:07;101529.84;;;0.77;39.89
15880;BME280;61999;51.514;14.614;2023-02-28T08:48:36;101540.06;;;0.86;40.07
15880;BME280;61999;51.514;14.614;2023-02-28T08:51:07;101536.44;;;0.99;39.34
15880;BME280;61999;51.514;14.614;2023-02-28T08:53:39;101531.09;;;1.09;38.84
15880;BME280;61999;51.514;14.614;2023-02-28T08:56:11;101526.94;;;0.95;37.04
15880;BME280;61999;51.514;14.614;2023-02-28T08:58:40;101526.34;;;1.34;38.36
15880;BME280;61999;51.514;14.614;2023-02-28T09:01:10;101526.88;;;1.53;37.02
15880;BME280;61999;51.514;14.614;2023-02-28T09:03:39;101517.25;;;1.59;35.43
15880;BME280;61999;51.514;14.614;2023-02-28T09:06:09;101527.44;;;1.70;33.99
15880;BME280;61999;51.514;14.614;2023-02-28T09:08:40;101521.09;;;1.86;33.09
15880;BME280;61999;51.514;14.614;2023-02-28T09:11:08;101517.25;;;2.06;33.19
15880;BME280;61999;51.514;14.614;2023-02-28T09:13:37;101515.41;;;2.11;34.12
15880;BME280;61999;51.514;14.614;2023-02-28T09:16:10;101517.00;;;2.18;32.64
15880;BME280;61999;51.514;14.614;2023-02-28T09:18:39;101518.75;;;2.17;31.09
15880;BME280;61999;51.514;14.614;2023-02-28T09:21:10;101510.72;;;2.28;30.34
15880;BME280;61999;51.514;14.614;2023-02-28T09:23:43;101513.41;;;2.24;30.21
15880;BME280;61999;51.514;14.614;2023-02-28T09:26:15;101519.03;;;2.46;29.28
15880;BME280;61999;51.514;14.614;2023-02-28T09:28:43;101526.38;;;1.80;29.46
15880;BME280;61999;51.514;14.614;2023-02-28T09:31:13;101511.41;;;2.36;29.42
15880;BME280;61999;51.514;14.614;2023-02-28T09:33:42;101520.53;;;2.56;29.94
15880;BME280;61999;51.514;14.614;2023-02-28T09:36:10;101517.66;;;2.68;29.27
15880;BME280;61999;51.514;14.614;2023-02-28T09:38:38;101523.03;;;2.98;29.71
15880;BME280;61999;51.514;14.614;2023-02-28T09:41:15;101521.56;;;3.23;29.25
15880;BME280;61999;51.514;14.614;2023-02-28T09:43:47;101508.91;;;3.44;29.31
15880;BME280;61999;51.514;14.614;2023-02-28T09:46:29;101512.03;;;3.22;28.04
15880;BME280;61999;51.514;14.614;2023-02-28T09:49:02;101515.78;;;3.46;28.86
15880;BME280;61999;51.514;14.614;2023-02-28T09:51:43;101518.78;;;3.31;29.22
15880;BME280;61999;51.514;14.614;2023-02-28T09:54:16;101522.72;;;3.80;29.91
15880;BME280;61999;51.514;14.614;2023-02-28T09:56:50;101523.53;;;4.43;29.94
15880;BME280;61999;51.514;14.614;2023-02-28T09:59:47;101517.69;;;4.64;26.93
15880;BME280;61999;51.514;14.614;2023-02-28T10:02:48;101516.44;;;4.48;26.89
15880;BME280;61999;51.514;14.614;2023-02-28T10:05:23;101529.91;;;4.03;27.44
15880;BME280;61999;51.514;14.614;2023-02-28T10:08:11;101519.44;;;3.73;26.80
15880;BME280;61999;51.514;14.614;2023-02-28T10:10:44;101518.66;;;4.01;27.51
15880;BME280;61999;51.514;14.614;2023-02-28T10:13:20;101514.84;;;4.13;27.85
15880;BME280;61999;51.514;14.614;2023-02-28T10:15:55;101521.75;;;4.45;27.69
15880;BME280;61999;51.514;14.614;2023-02-28T10:18:30;101499.25;;;4.97;27.66
15880;BME280;61999;51.514;14.614;2023-02-28T10:21:02;101500.69;;;4.79;26.56
15880;BME280;61999;51.514;14.614;2023-02-28T10:23:35;101501.59;;;5.05;25.98
15880;BME280;61999;51.514;14.614;2023-02-28T10:26:14;101496.16;;;5.38;26.31
15880;BME280;61999;51.514;14.614;2023-02-28T10:28:44;101509.72;;;5.49;29.78
15880;BME280;61999;51.514;14.614;2023-02-28T10:31:19;101503.38;;;5.81;29.75
15880;BME280;61999;51.514;14.614;2023-02-28T10:33:47;101508.19;;;6.39;27.97
15880;BME280;61999;51.514;14.614;2023-02-28T10:36:18;101493.13;;;6.89;26.95
15880;BME280;61999;51.514;14.614;2023-02-28T10:38:49;101488.19;;;7.45;27.57
15880;BME280;61999;51.514;14.614;2023-02-28T10:41:28;101490.78;;;8.06;24.68
15880;BME280;61999;51.514;14.614;2023-02-28T10:44:21;101491.13;;;8.73;25.50
15880;BME280;61999;51.514;14.614;2023-02-28T10:46:50;101493.88;;;8.52;21.13
15880;BME280;61999;51.514;14.614;2023-02-28T10:49:23;101494.81;;;8.87;23.31
15880;BME280;61999;51.514;14.614;2023-02-28T10:51:55;101485.63;;;9.13;21.60
15880;BME280;61999;51.514;14.614;2023-02-28T10:54:29;101476.84;;;9.15;21.19
15880;BME280;61999;51.514;14.614;2023-02-28T10:57:16;101469.63;;;9.35;22.64
15880;BME280;61999;51.514;14.614;2023-02-28T10:59:51;101470.13;;;9.42;21.88
15880;BME280;61999;51.514;14.614;2023-02-28T11:02:33;101474.34;;;9.29;20.85
15880;BME280;61999;51.514;14.614;2023-02-28T11:05:02;101468.06;;;9.82;22.45
15880;BME280;61999;51.514;14.614;2023-02-28T11:07:30;101466.75;;;10.07;22.07
15880;BME280;61999;51.514;14.614;2023-02-28T11:10:20;101474.50;;;10.41;19.62
15880;BME280;61999;51.514;14.614;2023-02-28T11:12:49;101473.72;;;10.39;20.35
15880;BME280;61999;51.514;14.614;2023-02-28T11:15:24;101471.72;;;10.90;20.79
15880;BME280;61999;51.514;14.614;2023-02-28T11:17:55;101466.69;;;11.02;20.15
15880;BME280;61999;51.514;14.614;2023-02-28T11:20:29;101467.75;;;11.44;20.23
15880;BME280;61999;51.514;14.614;2023-02-28T11:23:00;101470.78;;;11.80;20.23
15880;BME280;61999;51.514;14.614;2023-02-28T11:25:33;101472.34;;;11.97;19.52
15880;BME280;61999;51.514;14.614;2023-02-28T11:28:04;101470.34;;;12.15;19.52
15880;BME280;61999;51.514;14.614;2023-02-28T11:30:38;101471.88;;;11.76;18.60
15880;BME280;61999;51.514;14.614;2023-02-28T11:33:23;101457.53;;;12.09;18.71
15880;BME280;61999;51.514;14.614;2023-02-28T11:35:58;101469.00;;;12.37;18.33
15880;BME280;61999;51.514;14.614;2023-02-28T11:38:28;101456.78;;;12.48;19.06
15880;BME280;61999;51.514;14.614;2023-02-28T11:41:22;101455.88;;;12.62;17.59
15880;BME280;61999;51.514;14.614;2023-02-28T11:44:18;101453.03;;;12.65;18.83
15880;BME280;61999;51.514;14.614;2023-02-28T11:46:58;101447.19;;;13.00;17.33
15880;BME280;61999;51.514;14.614;2023-02-28T11:49:37;101447.41;;;12.97;16.79
15880;BME280;61999;51.514;14.614;2023-02-28T11:52:21;101445.22;;;13.04;17.33
15880;BME280;61999;51.514;14.614;2023-02-28T11:55:07;101447.88;;;13.42;17.89
15880;BME280;61999;51.514;14.614;2023-02-28T11:57:59;101435.38;;;13.31;16.39
15880;BME280;61999;51.514;14.614;2023-02-28T12:01:00;101437.84;;;12.94;17.58
15880;BME280;61999;51.514;14.614;2023-02-28T12:03:43;101439.16;;;13.14;17.59
15880;BME280;61999;51.514;14.614;2023-02-28T12:06:25;101441.09;;;13.64;18.49
15880;BME280;61999;51.514;14.614;2023-02-28T12:09:13;101430.81;;;14.09;17.29
15880;BME280;61999;51.514;14.614;2023-02-28T12:11:52;101437.53;;;14.01;17.34
15880;BME280;61999;51.514;14.614;2023-02-28T12:14:49;101430.88;;;13.83;16.68
15880;BME280;61999;51.514;14.614;2023-02-28T12:17:35;101443.22;;;13.58;17.83
15880;BME280;61999;51.514;14.614;2023-02-28T12:20:21;101434.66;;;14.04;17.55
15880;BME280;61999;51.514;14.614;2023-02-28T12:23:14;101432.94;;;14.16;17.85
15880;BME280;61999;51.514;14.614;2023-02-28T12:25:57;101430.81;;;14.09;17.69
15880;BME280;61999;51.514;14.614;2023-02-28T12:28:35;101422.00;;;14.80;17.70
15880;BME280;61999;51.514;14.614;2023-02-28T12:31:26;101429.41;;;15.34;17.35
15880;BME280;61999;51.514;14.614;2023-02-28T12:34:33;101426.38;;;15.95;15.46
15880;BME280;61999;51.514;14.614;2023-02-28T12:37:13;101417.81;;;16.35;15.56
15880;BME280;61999;51.514;14.614;2023-02-28T12:39:48;101424.19;;;16.55;16.89
15880;BME280;61999;51.514;14.614;2023-02-28T12:42:31;101412.06;;;17.25;16.48
15880;BME280;61999;51.514;14.614;2023-02-28T12:45:05;101410.41;;;17.34;15.86
15880;BME280;61999;51.514;14.614;2023-02-28T12:47:40;101404.97;;;15.18;15.10
15880;BME280;61999;51.514;14.614;2023-02-28T12:50:11;101401.09;;;16.44;16.64
15880;BME280;61999;51.514;14.614;2023-02-28T12:52:54;101403.09;;;16.84;13.83
15880;BME280;61999;51.514;14.614;2023-02-28T12:55:35;101395.88;;;16.43;13.80
15880;BME280;61999;51.514;14.614;2023-02-28T12:58:14;101386.44;;;17.13;13.77
15880;BME280;61999;51.514;14.614;2023-02-28T13:01:13;101401.53;;;17.54;14.51
15880;BME280;61999;51.514;14.614;2023-02-28T13:04:27;101394.34;;;17.95;14.56
15880;BME280;61999;51.514;14.614;2023-02-28T13:07:26;101389.47;;;18.29;14.71
15880;BME280;61999;51.514;14.614;2023-02-28T13:10:04;101391.94;;;17.42;13.95
15880;BME280;61999;51.514;14.614;2023-02-28T13:12:35;101396.34;;;17.53;14.74
15880;BME280;61999;51.514;14.614;2023-02-28T13:15:08;101382.84;;;17.85;14.25
15880;BME280;61999;51.514;14.614;2023-02-28T13:17:40;101381.91;;;16.62;13.96